Puerto Banus, Marbella

>

This is an optional block (switch it off / on) in the settings - file ($SITE['banners'] = false;)

You can display ads, any other important text or photo’s using text / html or PHP code.

You can place one or more at the top and or bottom and it can all be different for content / size .



Meteosat more information blitzortung!


Radar lluvias  rain snow radar


Visita nuestra red de sitios de meteo:

Documentation for the template used

MeteoibericaRed estaciones Meteorologicas

MeteoclimaticRed estaciones Meteorologicas



Viento Desde: 19-04-2018 23:00 Hasta: 21-04-2018 04:59 Advertencias para: Viento Nivel: Amarillo info button

Pagina Historial Weather Underground texto

Diario Resumen January 03, 2018 Unidades:  impérial    Métrico   Tanto
« Anterior Dia
Siguiente Dia »
Diario Semana Mensual Anual Personalizada
  Maxima: Minima: Media:
Temperatura: TemperatureC °F 12.9 °F 15.4 °F
Punto de rocío: DewpointC °F 8.7 °F 11.5 °F
Humedad: Humidity % 64 % 77 %
Velocidad del Viento: WindSpeedKMH mph 0.0 mph 4.4 mph
Ráfagas de viento: WindSpeedGustKMH mph - -
Viento:- - WSW
Pression baro: PressurehPa in 1028.0 in -
Précipitaciones: 0.0 in    
Historical Graphs
 
 
Datos de tabla para January 03, 2018
Tiempo Temperatura Punto de rocío Pression baro Viento Velocidad del Viento Ráfagas de viento Humedad Las precipitaciones Rate ( Hora )
TemperatureC °F DewpointC °F PressurehPa in Calm     Humidity % HourlyPrecipMM in
00:01 16.1 °F 9.2 °F 1030.4 in North 5.6 mph 5.6 mph 64 % 0.0 in
00:02 16.1 °F 9.2 °F 1030.4 in North 5.6 mph 5.6 mph 64 % 0.0 in
00:06 16.1 °F 9.3 °F 1030.4 in Calm     64 % 0.0 in
00:08 16.1 °F 9.3 °F 1030.4 in North 4.8 mph 4.8 mph 64 % 0.0 in
00:10 16.1 °F 9.3 °F 1030.4 in North 5.6 mph 5.6 mph 64 % 0.0 in
00:13 16.2 °F 9.3 °F 1030.4 in NNW 5.6 mph 5.6 mph 64 % 0.0 in
00:18 16.3 °F 9.4 °F 1030.4 in Calm     64 % 0.0 in
00:19 16.3 °F 9.4 °F 1030.4 in Calm     64 % 0.0 in
00:20 16.3 °F 9.4 °F 1030.4 in Calm     64 % 0.0 in
00:24 15.9 °F 9.1 °F 1030.4 in NNW 8.0 mph 8.0 mph 64 % 0.0 in
00:29 15.3 °F 9.0 °F 1030.4 in North 6.4 mph 6.4 mph 66 % 0.0 in
00:31 15.3 °F 8.9 °F 1030.4 in North 5.6 mph 5.6 mph 66 % 0.0 in
00:32 15.2 °F 8.8 °F 1030.4 in NNW 5.6 mph 5.6 mph 66 % 0.0 in
00:36 15.1 °F 8.7 °F 1030.4 in North 6.4 mph 6.4 mph 66 % 0.0 in
00:41 15.0 °F 8.9 °F 1030.4 in NNW 8.0 mph 8.0 mph 67 % 0.0 in
00:46 14.9 °F 8.8 °F 1030.0 in North 5.6 mph 5.6 mph 67 % 0.0 in
00:47 14.9 °F 8.9 °F 1030.0 in North 5.6 mph 5.6 mph 67 % 0.0 in
00:52 15.1 °F 8.9 °F 1030.4 in North 9.3 mph 9.3 mph 67 % 0.0 in
00:53 15.1 °F 8.9 °F 1030.4 in North 9.3 mph 9.3 mph 67 % 0.0 in
00:55 14.9 °F 8.9 °F 1030.0 in North 9.7 mph 9.7 mph 67 % 0.0 in
00:58 14.8 °F 8.7 °F 1030.0 in North 7.4 mph 7.4 mph 67 % 0.0 in
01:03 14.7 °F 8.9 °F 1030.0 in North 11.3 mph 11.3 mph 68 % 0.0 in
01:05 14.7 °F 8.9 °F 1030.0 in North 9.3 mph 9.3 mph 68 % 0.0 in
01:08 14.7 °F 8.8 °F 1030.0 in North 12.9 mph 12.9 mph 68 % 0.0 in
01:13 14.5 °F 8.7 °F 1030.0 in North 5.6 mph 5.6 mph 68 % 0.0 in
01:17 14.5 °F 8.9 °F 1030.0 in Calm     69 % 0.0 in
01:19 14.4 °F 8.8 °F 1030.0 in Calm     69 % 0.0 in
01:22 14.3 °F 8.7 °F 1030.0 in NNE 5.6 mph 5.6 mph 69 % 0.0 in
01:27 14.1 °F 8.7 °F 1030.0 in North 7.4 mph 7.4 mph 70 % 0.0 in
01:32 14.1 °F 8.9 °F 1030.0 in Calm     71 % 0.0 in
01:35 14.2 °F 9.1 °F 1030.0 in Calm     71 % 0.0 in
01:36 14.2 °F 9.1 °F 1030.0 in Calm     71 % 0.0 in
01:40 14.4 °F 9.2 °F 1030.0 in Calm     71 % 0.0 in
01:41 14.4 °F 9.2 °F 1030.0 in Calm     71 % 0.0 in
01:46 15.0 °F 9.6 °F 1030.0 in Calm     70 % 0.0 in
01:48 15.1 °F 9.6 °F 1030.0 in Calm     70 % 0.0 in
01:50 15.2 °F 9.5 °F 1030.0 in Calm     69 % 0.0 in
01:53 15.2 °F 9.5 °F 1030.0 in Calm     69 % 0.0 in
01:57 15.1 °F 9.2 °F 1030.0 in Calm     68 % 0.0 in
01:58 15.1 °F 9.2 °F 1030.0 in NNW 4.8 mph 4.8 mph 68 % 0.0 in
02:03 15.1 °F 9.4 °F 1030.0 in NW 8.0 mph 8.0 mph 69 % 0.0 in
02:05 15.1 °F 9.4 °F 1030.0 in NW 7.4 mph 7.4 mph 69 % 0.0 in
02:11 15.3 °F 9.7 °F 1030.0 in NNW 6.4 mph 6.4 mph 69 % 0.0 in
02:14 15.6 °F 9.7 °F 1030.0 in NW 5.6 mph 5.6 mph 68 % 0.0 in
02:16 15.8 °F 9.9 °F 1030.0 in NW 5.6 mph 5.6 mph 68 % 0.0 in
02:21 16.1 °F 9.9 °F 1030.0 in NNW 3.7 mph 3.7 mph 67 % 0.0 in
02:22 16.1 °F 9.9 °F 1030.0 in NNW 1.9 mph   67 % 0.0 in
02:23 16.1 °F 9.9 °F 1030.0 in Calm     67 % 0.0 in
02:28 16.2 °F 10.1 °F 1029.7 in NW 5.6 mph 5.6 mph 67 % 0.0 in
02:31 16.1 °F 10.2 °F 1029.7 in West 5.6 mph 5.6 mph 68 % 0.0 in
02:34 15.9 °F 10.3 °F 1029.7 in West 6.4 mph 6.4 mph 69 % 0.0 in
02:39 15.8 °F 10.1 °F 1029.7 in West 5.6 mph 5.6 mph 69 % 0.0 in
02:40 15.8 °F 10.1 °F 1029.7 in West 4.8 mph 4.8 mph 69 % 0.0 in
02:45 15.7 °F 10.2 °F 1029.7 in WNW 6.4 mph 6.4 mph 70 % 0.0 in
02:46 15.6 °F 10.2 °F 1030.0 in WNW 5.6 mph 5.6 mph 70 % 0.0 in
02:47 15.6 °F 10.1 °F 1029.7 in West 5.6 mph 5.6 mph 70 % 0.0 in
02:52 15.5 °F 10.3 °F 1029.7 in West 3.7 mph 3.7 mph 71 % 0.0 in
02:54 15.5 °F 10.3 °F 1029.7 in West 4.8 mph 4.8 mph 71 % 0.0 in
02:59 15.4 °F 10.2 °F 1029.7 in West 5.6 mph 5.6 mph 71 % 0.0 in
03:04 15.4 °F 10.2 °F 1029.7 in West 5.6 mph 5.6 mph 71 % 0.0 in
03:05 15.4 °F 10.2 °F 1029.7 in West 5.6 mph 5.6 mph 71 % 0.0 in
03:10 15.4 °F 10.2 °F 1029.7 in West 6.4 mph 6.4 mph 71 % 0.0 in
03:11 15.4 °F 10.2 °F 1029.7 in West 6.4 mph 6.4 mph 71 % 0.0 in
03:12 15.4 °F 10.2 °F 1029.7 in West 5.6 mph 6.1 mph 71 % 0.0 in
03:17 15.4 °F 10.2 °F 1029.7 in West 5.6 mph 5.6 mph 71 % 0.0 in
03:22 15.4 °F 10.2 °F 1029.7 in Calm     71 % 0.0 in
03:23 15.4 °F 10.2 °F 1029.7 in West 1.9 mph   71 % 0.0 in
03:28 15.3 °F 9.9 °F 1029.7 in WNW 5.6 mph 5.6 mph 70 % 0.0 in
03:33 15.2 °F 10.0 °F 1029.7 in ENE 7.4 mph 7.4 mph 71 % 0.0 in
03:39 14.8 °F 10.0 °F 1029.7 in Calm     73 % 0.0 in
03:44 14.6 °F 10.0 °F 1029.7 in Calm     74 % 0.0 in
03:46 14.5 °F 9.9 °F 1029.7 in Calm     74 % 0.0 in
03:51 14.5 °F 9.9 °F 1029.7 in Calm     74 % 0.0 in
03:53 14.4 °F 9.9 °F 1029.7 in Calm     74 % 0.0 in
03:54 14.4 °F 9.9 °F 1029.7 in NW 4.8 mph 4.8 mph 74 % 0.0 in
03:59 14.3 °F 9.6 °F 1029.7 in North 6.4 mph 6.4 mph 73 % 0.0 in
04:04 14.2 °F 9.7 °F 1029.7 in NNW 5.6 mph 5.6 mph 74 % 0.0 in
04:06 14.2 °F 9.7 °F 1029.7 in North 3.7 mph 3.7 mph 74 % 0.0 in
04:07 14.2 °F 9.7 °F 1029.7 in North 3.7 mph 3.7 mph 74 % 0.0 in
04:12 14.1 °F 9.5 °F 1029.7 in Calm     74 % 0.0 in
04:15 13.9 °F 9.4 °F 1029.7 in North 3.7 mph 3.7 mph 74 % 0.0 in
04:16 13.9 °F 9.3 °F 1029.7 in North 1.9 mph 1.9 mph 74 % 0.0 in
04:21 13.8 °F 9.5 °F 1029.7 in Calm     75 % 0.0 in
04:26 14.1 °F 9.9 °F 1029.7 in North 3.7 mph 3.7 mph 76 % 0.0 in
04:31 14.2 °F 10.1 °F 1029.7 in Calm     76 % 0.0 in
04:35 14.3 °F 10.2 °F 1029.7 in North 3.7 mph 3.7 mph 76 % 0.0 in
04:40 14.4 °F 10.3 °F 1029.7 in Calm     76 % 0.0 in
04:45 14.6 °F 10.4 °F 1029.7 in Calm     76 % 0.0 in
04:47 14.6 °F 10.4 °F 1029.7 in Calm     76 % 0.0 in
04:48 14.7 °F 10.5 °F 1029.7 in Calm     76 % 0.0 in
04:53 14.9 °F 10.7 °F 1029.7 in North 3.7 mph 3.7 mph 76 % 0.0 in
04:57 14.9 °F 10.3 °F 1029.7 in North 5.6 mph 5.6 mph 74 % 0.0 in
04:58 14.8 °F 10.2 °F 1029.7 in North 7.4 mph 7.4 mph 74 % 0.0 in
05:02 14.2 °F 9.4 °F 1029.7 in North 5.6 mph 5.6 mph 73 % 0.0 in
05:04 14.1 °F 9.6 °F 1029.7 in North 5.6 mph 5.6 mph 74 % 0.0 in
05:09 13.8 °F 9.3 °F 1029.7 in NNE 1.9 mph 1.9 mph 74 % 0.0 in
05:10 13.8 °F 9.5 °F 1029.7 in NW 6.4 mph 6.4 mph 75 % 0.0 in
05:15 14.0 °F 9.8 °F 1029.7 in Calm     76 % 0.0 in
05:17 14.1 °F 9.7 °F 1029.7 in Calm     75 % 0.0 in
05:20 14.2 °F 9.8 °F 1029.3 in NNW 6.4 mph 6.4 mph 75 % 0.0 in
05:22 14.2 °F 9.8 °F 1029.7 in NNW 8.0 mph 8.0 mph 75 % 0.0 in
05:23 14.2 °F 9.8 °F 1029.7 in NNW 9.3 mph 9.3 mph 75 % 0.0 in
05:27 14.2 °F 9.8 °F 1029.3 in SSW 7.4 mph 7.4 mph 75 % 0.0 in
05:28 14.2 °F 9.8 °F 1029.7 in SSW 7.4 mph 7.4 mph 75 % 0.0 in
05:29 14.2 °F 9.8 °F 1029.7 in SW 8.0 mph 8.0 mph 75 % 0.0 in
05:34 14.2 °F 10.1 °F 1029.7 in WSW 1.9 mph   76 % 0.0 in
05:36 14.2 °F 10.1 °F 1029.7 in Calm     76 % 0.0 in
05:41 14.2 °F 10.0 °F 1029.3 in Calm     76 % 0.0 in
05:46 14.3 °F 10.3 °F 1029.3 in West 4.8 mph 4.8 mph 77 % 0.0 in
05:48 14.3 °F 10.3 °F 1029.3 in West 5.6 mph 5.6 mph 77 % 0.0 in
05:53 14.0 °F 9.6 °F 1029.3 in West 3.7 mph 3.7 mph 75 % 0.0 in
05:54 13.9 °F 9.8 °F 1029.3 in West 1.9 mph   76 % 0.0 in
05:59 13.9 °F 9.9 °F 1029.3 in West 1.9 mph 1.9 mph 77 % 0.0 in
06:00 13.9 °F 9.9 °F 1029.3 in West 1.9 mph 1.9 mph 77 % 0.0 in
06:05 13.8 °F 9.9 °F 1029.3 in West 1.6 mph   77 % 0.0 in
06:06 13.8 °F 9.9 °F 1029.3 in West 1.9 mph 1.9 mph 77 % 0.0 in
06:11 13.8 °F 9.9 °F 1029.3 in Calm     77 % 0.0 in
06:13 13.8 °F 9.8 °F 1029.3 in West 1.9 mph   77 % 0.0 in
06:18 13.7 °F 9.8 °F 1029.0 in Calm     77 % 0.0 in
06:21 13.7 °F 9.7 °F 1029.3 in Calm     77 % 0.0 in
06:24 13.7 °F 9.7 °F 1029.3 in Calm     77 % 0.0 in
06:29 13.6 °F 9.7 °F 1029.0 in Calm     77 % 0.0 in
06:31 13.7 °F 9.7 °F 1029.0 in Calm     77 % 0.0 in
06:36 13.2 °F 9.1 °F 1029.3 in NNE 5.6 mph 5.6 mph 76 % 0.0 in
06:41 13.2 °F 9.2 °F 1029.3 in SW 6.4 mph 6.4 mph 77 % 0.0 in
06:43 13.2 °F 9.4 °F 1029.3 in SW 6.4 mph 6.4 mph 78 % 0.0 in
06:47 13.3 °F 9.7 °F 1029.3 in SW 5.6 mph 5.6 mph 79 % 0.0 in
06:50 13.4 °F 9.8 °F 1029.3 in SW 3.7 mph 3.7 mph 79 % 0.0 in
06:55 13.6 °F 10.3 °F 1029.3 in East 3.7 mph   81 % 0.0 in
06:56 13.6 °F 10.3 °F 1029.3 in East 3.7 mph   81 % 0.0 in
07:01 13.6 °F 10.3 °F 1029.3 in Calm     81 % 0.0 in
07:02 13.6 °F 10.2 °F 1029.3 in Calm     80 % 0.0 in
07:07 13.5 °F 10.3 °F 1029.7 in Calm     81 % 0.0 in
07:12 13.5 °F 10.1 °F 1029.7 in WSW 5.6 mph 5.6 mph 80 % 0.0 in
07:15 13.5 °F 10.3 °F 1029.7 in WSW 3.2 mph 6.4 mph 81 % 0.0 in
07:16 13.5 °F 10.1 °F 1029.7 in NW 5.6 mph 5.6 mph 80 % 0.0 in
07:20 13.4 °F 9.9 °F 1029.7 in NW 3.7 mph   79 % 0.0 in
07:25 13.4 °F 9.8 °F 1029.7 in North 3.7 mph 3.7 mph 79 % 0.0 in
07:26 13.4 °F 9.8 °F 1029.7 in North 3.7 mph 3.7 mph 79 % 0.0 in
07:31 13.3 °F 9.8 °F 1029.7 in Calm     79 % 0.0 in
07:32 13.3 °F 9.8 °F 1029.7 in Calm     79 % 0.0 in
07:36 13.1 °F 9.5 °F 1030.0 in NNE 5.6 mph 5.6 mph 79 % 0.0 in
07:41 12.9 °F 9.6 °F 1030.0 in NNE 3.7 mph 3.7 mph 80 % 0.0 in
07:45 12.9 °F 9.5 °F 1030.0 in NNE 3.7 mph   80 % 0.0 in
07:50 12.9 °F 9.8 °F 1030.0 in Calm     81 % 0.0 in
07:51 12.9 °F 9.7 °F 1030.0 in Calm     81 % 0.0 in
07:56 13.0 °F 9.8 °F 1030.0 in Calm     81 % 0.0 in
08:01 13.1 °F 9.9 °F 1030.0 in Calm     81 % 0.0 in
08:02 13.1 °F 9.9 °F 1030.0 in Calm     81 % 0.0 in
08:03 13.1 °F 9.9 °F 1030.0 in NNE 3.2 mph 3.2 mph 81 % 0.0 in
08:08 13.0 °F 9.8 °F 1030.0 in NNE 5.6 mph 5.6 mph 81 % 0.0 in
08:13 13.0 °F 9.8 °F 1030.0 in NNE 3.7 mph 3.7 mph 81 % 0.0 in
08:16 13.0 °F 9.8 °F 1030.0 in North 5.6 mph 5.6 mph 81 % 0.0 in
08:21 12.9 °F 9.9 °F 1030.0 in North 1.9 mph   82 % 0.0 in
08:22 13.0 °F 10.0 °F 1030.0 in Calm     82 % 0.0 in
08:27 13.1 °F 10.1 °F 1030.4 in Calm     82 % 0.0 in
08:30 13.0 °F 10.0 °F 1030.0 in Calm     82 % 0.0 in
08:33 13.1 °F 10.1 °F 1030.0 in Calm     82 % 0.0 in
08:38 13.1 °F 10.1 °F 1030.0 in NW 5.6 mph 5.6 mph 82 % 0.0 in
08:40 13.1 °F 10.1 °F 1030.0 in NW 3.7 mph 3.7 mph 82 % 0.0 in
08:45 13.1 °F 10.1 °F 1030.0 in Calm     82 % 0.0 in
08:50 13.2 °F 10.2 °F 1030.0 in NW 5.6 mph 5.6 mph 82 % 0.0 in
08:52 13.2 °F 10.0 °F 1030.0 in NNW 3.7 mph 3.7 mph 81 % 0.0 in
08:57 13.3 °F 10.1 °F 1030.4 in NNW 5.6 mph 5.6 mph 81 % 0.0 in
09:02 13.4 °F 10.2 °F 1030.4 in Calm     81 % 0.0 in
09:05 13.3 °F 10.2 °F 1030.4 in Calm     81 % 0.0 in
09:08 13.3 °F 10.1 °F 1030.4 in NNW 5.6 mph 5.6 mph 81 % 0.0 in
09:13 13.5 °F 10.3 °F 1030.4 in NNW 3.7 mph 3.7 mph 81 % 0.0 in
09:18 13.6 °F 10.2 °F 1030.4 in Calm     80 % 0.0 in
09:19 13.6 °F 10.2 °F 1030.4 in Calm     80 % 0.0 in
09:23 13.7 °F 10.3 °F 1030.4 in Calm     80 % 0.0 in
09:24 13.7 °F 10.3 °F 1030.4 in Calm     80 % 0.0 in
09:29 13.8 °F 10.4 °F 1030.4 in Calm     80 % 0.0 in
09:34 14.1 °F 10.7 °F 1030.4 in Calm     80 % 0.0 in
09:36 14.2 °F 10.8 °F 1030.7 in NNW 3.7 mph 3.7 mph 80 % 0.0 in
09:40 14.2 °F 10.6 °F 1030.7 in Calm     79 % 0.0 in
09:42 14.3 °F 10.7 °F 1030.7 in Calm     79 % 0.0 in
09:47 14.4 °F 10.8 °F 1030.7 in Calm     79 % 0.0 in
09:49 14.5 °F 10.9 °F 1030.7 in Calm     79 % 0.0 in
09:53 14.7 °F 11.1 °F 1030.7 in Calm     79 % 0.0 in
09:58 14.8 °F 11.2 °F 1030.7 in Calm     79 % 0.0 in
10:02 15.1 °F 11.4 °F 1031.0 in Calm     79 % 0.0 in
10:04 15.1 °F 11.5 °F 1031.0 in NNW 1.9 mph 1.9 mph 79 % 0.0 in
10:07 15.1 °F 11.5 °F 1031.0 in Calm     79 % 0.0 in
10:11 15.2 °F 11.6 °F 1031.0 in Calm     79 % 0.0 in
10:16 15.3 °F 11.7 °F 1031.0 in Calm     79 % 0.0 in
10:20 15.3 °F 11.3 °F 1031.0 in NNW 3.7 mph 3.7 mph 77 % 0.0 in
10:22 15.2 °F 11.2 °F 1031.0 in NNW 3.7 mph 3.7 mph 77 % 0.0 in
10:27 15.3 °F 11.3 °F 1031.4 in Calm     77 % 0.0 in
10:33 15.5 °F 11.5 °F 1031.4 in Calm     77 % 0.0 in
10:35 15.6 °F 11.6 °F 1031.4 in Calm     77 % 0.0 in
10:38 15.6 °F 11.4 °F 1031.4 in Calm     76 % 0.0 in
10:41 15.7 °F 11.7 °F 1031.4 in Calm     77 % 0.0 in
10:46 16.0 °F 12.2 °F 1031.4 in Calm     78 % 0.0 in
10:48 16.1 °F 12.2 °F 1031.4 in Calm     78 % 0.0 in
10:53 16.2 °F 12.5 °F 1031.4 in NNW 5.6 mph 5.6 mph 79 % 0.0 in
10:54 16.2 °F 12.5 °F 1031.4 in NNW 3.7 mph 3.7 mph 79 % 0.0 in
10:59 16.3 °F 12.6 °F 1031.4 in Calm     79 % 0.0 in
11:01 16.3 °F 12.7 °F 1031.7 in Calm     79 % 0.0 in
11:06 16.4 °F 12.8 °F 1031.4 in Calm     79 % 0.0 in
11:10 16.6 °F 12.9 °F 1031.7 in Calm   3.2 mph 79 % 0.0 in
11:11 16.6 °F 12.9 °F 1031.4 in NNW 1.9 mph 1.9 mph 79 % 0.0 in
11:12 16.7 °F 13.0 °F 1031.4 in NNW 3.2 mph 3.2 mph 79 % 0.0 in
11:17 16.7 °F 13.0 °F 1031.4 in NNW 3.7 mph 3.7 mph 79 % 0.0 in
11:18 16.7 °F 12.8 °F 1031.4 in NNW 5.6 mph 5.6 mph 78 % 0.0 in
11:23 16.5 °F 12.4 °F 1031.4 in NNW 5.6 mph 5.6 mph 77 % 0.0 in
11:25 16.5 °F 12.4 °F 1031.4 in NNW 5.6 mph 5.6 mph 77 % 0.0 in
11:28 16.6 °F 12.5 °F 1031.4 in NNW 5.6 mph 5.6 mph 77 % 0.0 in
11:33 16.6 °F 12.3 °F 1031.4 in NW 5.6 mph 5.6 mph 76 % 0.0 in
11:35 16.7 °F 12.4 °F 1031.4 in NW 5.6 mph 5.6 mph 76 % 0.0 in
11:40 16.8 °F 12.4 °F 1031.4 in NW 3.7 mph 3.7 mph 75 % 0.0 in
11:41 16.9 °F 12.4 °F 1031.4 in NW 3.7 mph 3.7 mph 75 % 0.0 in
11:46 17.0 °F 12.6 °F 1031.4 in NW 3.7 mph 3.7 mph 75 % 0.0 in
11:48 17.1 °F 12.6 °F 1031.4 in NW 3.7 mph 3.7 mph 75 % 0.0 in
11:53 17.2 °F 12.7 °F 1031.4 in NW 1.9 mph   75 % 0.0 in
11:54 17.2 °F 12.7 °F 1031.4 in NW 1.9 mph 1.9 mph 75 % 0.0 in
11:59 17.3 °F 13.1 °F 1031.4 in NW 3.2 mph 3.2 mph 76 % 0.0 in
12:00 17.4 °F 13.1 °F 1031.4 in NW 3.7 mph 3.7 mph 76 % 0.0 in
12:06 17.4 °F 13.4 °F 1031.4 in Calm     77 % 0.0 in
12:11 17.6 °F 13.6 °F 1031.4 in Calm     77 % 0.0 in
12:12 17.6 °F 13.6 °F 1031.4 in Calm     77 % 0.0 in
12:16 17.6 °F 13.6 °F 1031.4 in Calm     77 % 0.0 in
12:22 17.7 °F 13.4 °F 1031.0 in NW 1.9 mph 1.9 mph 76 % 0.0 in
12:23 17.7 °F 13.4 °F 1031.0 in NW 1.9 mph   76 % 0.0 in
12:27 17.7 °F 13.2 °F 1031.0 in NW 1.9 mph   75 % 0.0 in
12:32 17.8 °F 13.1 °F 1031.0 in Calm     74 % 0.0 in
12:34 17.9 °F 13.2 °F 1031.0 in Calm     74 % 0.0 in
12:39 18.1 °F 13.3 °F 1031.0 in NW 3.7 mph 3.7 mph 74 % 0.0 in
12:41 18.1 °F 13.2 °F 1030.7 in NW 1.9 mph 1.9 mph 73 % 0.0 in
12:46 18.2 °F 13.3 °F 1030.7 in Calm     73 % 0.0 in
12:52 18.2 °F 13.1 °F 1030.7 in NW 3.7 mph 3.7 mph 72 % 0.0 in
12:54 18.2 °F 13.1 °F 1030.7 in NW 4.8 mph 4.8 mph 72 % 0.0 in
12:59 18.0 °F 12.7 °F 1030.7 in West 6.4 mph 6.8 mph 71 % 0.0 in
13:00 18.0 °F 12.7 °F 1030.4 in WSW 9.7 mph 9.7 mph 71 % 0.0 in
13:05 17.7 °F 12.4 °F 1030.4 in WSW 7.4 mph 7.4 mph 71 % 0.0 in
13:06 17.7 °F 12.3 °F 1030.4 in WSW 5.6 mph 5.6 mph 71 % 0.0 in
13:10 17.8 °F 12.4 °F 1030.0 in WSW 7.4 mph 7.4 mph 71 % 0.0 in
13:12 17.9 °F 12.8 °F 1030.0 in West 8.0 mph 8.0 mph 72 % 0.0 in
13:17 18.2 °F 12.8 °F 1030.0 in West 5.6 mph 5.6 mph 71 % 0.0 in
13:20 18.3 °F 12.7 °F 1030.0 in SW 8.0 mph 8.0 mph 70 % 0.0 in
13:24 18.1 °F 12.7 °F 1030.0 in SE 5.6 mph 5.6 mph 71 % 0.0 in
13:26 18.1 °F 12.7 °F 1030.0 in SSE 5.6 mph 5.6 mph 71 % 0.0 in
13:30 18.1 °F 12.9 °F 1030.0 in SSW 8.0 mph 8.0 mph 72 % 0.0 in
13:35 17.9 °F 13.4 °F 1030.0 in South 6.4 mph 6.4 mph 75 % 0.0 in
13:36 17.9 °F 13.4 °F 1030.0 in South 7.4 mph 7.4 mph 75 % 0.0 in
13:41 17.5 °F 13.0 °F 1030.0 in SW 9.3 mph 9.3 mph 75 % 0.0 in
13:42 17.4 °F 12.9 °F 1029.7 in SW 9.3 mph 9.3 mph 75 % 0.0 in
13:47 17.4 °F 12.9 °F 1029.7 in SW 5.6 mph 5.6 mph 75 % 0.0 in
13:51 17.5 °F 13.0 °F 1029.7 in SW 7.4 mph 7.4 mph 75 % 0.0 in
13:52 17.5 °F 13.0 °F 1029.7 in SW 7.4 mph 7.4 mph 75 % 0.0 in
14:02 17.6 °F 12.9 °F 1029.3 in SW 9.3 mph 9.3 mph 74 % 0.0 in
14:06 17.6 °F 12.9 °F 1029.3 in WSW 11.1 mph 11.1 mph 74 % 0.0 in
14:08 17.5 °F 12.6 °F 1029.3 in WSW 11.1 mph 11.1 mph 73 % 0.0 in
14:13 17.4 °F 12.3 °F 1029.3 in WSW 11.1 mph 11.1 mph 72 % 0.0 in
14:14 17.4 °F 12.1 °F 1029.3 in WSW 9.3 mph 9.3 mph 71 % 0.0 in
14:19 17.6 °F 12.4 °F 1029.3 in WSW 9.3 mph 9.3 mph 72 % 0.0 in
14:20 17.6 °F 12.4 °F 1029.3 in WSW 8.0 mph 9.7 mph 72 % 0.0 in
14:22 17.7 °F 12.6 °F 1029.0 in SW 13.0 mph 13.0 mph 72 % 0.0 in
14:25 17.8 °F 12.9 °F 1029.0 in SW 13.0 mph 13.0 mph 73 % 0.0 in
14:29 17.7 °F 13.2 °F 1029.0 in SW 11.1 mph 11.1 mph 75 % 0.0 in
14:30 17.7 °F 13.0 °F 1029.0 in SW 11.1 mph 11.1 mph 74 % 0.0 in
14:35 17.6 °F 12.9 °F 1029.0 in WSW 11.3 mph 11.3 mph 74 % 0.0 in
14:38 17.6 °F 12.9 °F 1029.0 in SW 11.1 mph 11.1 mph 74 % 0.0 in
14:43 17.5 °F 13.2 °F 1028.7 in SW 13.0 mph 13.0 mph 76 % 0.0 in
14:48 17.3 °F 12.8 °F 1028.7 in WSW 13.0 mph 13.0 mph 75 % 0.0 in
14:50 17.3 °F 13.0 °F 1028.7 in WSW 13.0 mph 13.0 mph 76 % 0.0 in
14:55 17.2 °F 12.9 °F 1028.7 in WSW 14.8 mph 14.8 mph 76 % 0.0 in
14:56 17.2 °F 13.1 °F 1028.7 in SW 13.0 mph 13.0 mph 77 % 0.0 in
15:01 17.1 °F 13.1 °F 1028.7 in SW 13.0 mph 13.0 mph 77 % 0.0 in
15:02 17.1 °F 13.2 °F 1028.7 in SW 13.0 mph 13.0 mph 78 % 0.0 in
15:03 17.2 °F 13.3 °F 1028.7 in SW 9.3 mph 9.3 mph 78 % 0.0 in
15:07 17.3 °F 13.6 °F 1028.7 in SW 5.6 mph 5.6 mph 79 % 0.0 in
15:09 17.3 °F 13.8 °F 1028.7 in SW 5.6 mph 5.6 mph 80 % 0.0 in
15:14 17.5 °F 14.0 °F 1028.7 in SW 8.0 mph 8.0 mph 80 % 0.0 in
15:19 17.5 °F 14.0 °F 1028.7 in SW 9.7 mph 9.7 mph 80 % 0.0 in
15:24 17.4 °F 13.9 °F 1028.7 in SW 9.3 mph 9.3 mph 80 % 0.0 in
15:25 17.4 °F 13.9 °F 1028.7 in SW 7.4 mph 7.4 mph 80 % 0.0 in
15:30 17.4 °F 14.2 °F 1028.7 in SW 9.3 mph 9.3 mph 81 % 0.0 in
15:35 17.4 °F 14.2 °F 1028.7 in SW 7.4 mph 7.4 mph 81 % 0.0 in
15:36 17.4 °F 14.2 °F 1028.7 in SW 7.4 mph 7.4 mph 81 % 0.0 in
15:39 17.4 °F 14.1 °F 1028.3 in SW 9.3 mph 9.3 mph 81 % 0.0 in
15:43 17.3 °F 14.1 °F 1028.3 in SW 8.0 mph 8.0 mph 81 % 0.0 in
15:47 17.3 °F 14.1 °F 1028.3 in SW 6.4 mph 6.4 mph 81 % 0.0 in
15:50 17.3 °F 14.2 °F 1028.3 in SW 6.4 mph 6.4 mph 82 % 0.0 in
15:55 17.4 °F 14.3 °F 1028.3 in SW 3.7 mph 3.7 mph 82 % 0.0 in
15:56 17.3 °F 14.2 °F 1028.3 in SW 5.6 mph 5.6 mph 82 % 0.0 in
16:01 17.2 °F 14.3 °F 1028.3 in SW 1.9 mph 1.9 mph 83 % 0.0 in
16:06 17.3 °F 14.4 °F 1028.3 in SW 5.6 mph 5.6 mph 83 % 0.0 in
16:08 17.2 °F 14.1 °F 1028.3 in SW 5.6 mph 5.6 mph 82 % 0.0 in
16:13 17.0 °F 14.1 °F 1028.3 in SW 3.7 mph 3.7 mph 83 % 0.0 in
16:16 17.1 °F 14.2 °F 1028.3 in SW 3.7 mph 3.7 mph 83 % 0.0 in
16:20 17.2 °F 14.3 °F 1028.3 in SW 5.6 mph 5.6 mph 83 % 0.0 in
16:24 16.9 °F 14.1 °F 1028.3 in South 6.4 mph 6.4 mph 83 % 0.0 in
16:25 16.8 °F 13.9 °F 1028.3 in SE 5.6 mph 5.6 mph 83 % 0.0 in
16:30 16.5 °F 13.6 °F 1028.3 in SE 5.6 mph 5.6 mph 83 % 0.0 in
16:32 16.4 °F 13.7 °F 1028.3 in SE 5.6 mph 5.6 mph 84 % 0.0 in
16:37 16.7 °F 13.9 °F 1028.3 in SE 1.9 mph 1.9 mph 84 % 0.0 in
16:38 16.7 °F 13.9 °F 1028.3 in SE 1.9 mph 1.9 mph 84 % 0.0 in
16:43 16.8 °F 14.1 °F 1028.0 in SE 3.7 mph 3.7 mph 84 % 0.0 in
16:47 16.9 °F 14.2 °F 1028.3 in SE 5.6 mph 5.6 mph 84 % 0.0 in
16:49 17.0 °F 14.1 °F 1028.3 in SE 3.7 mph 3.7 mph 83 % 0.0 in
16:51 17.1 °F 14.2 °F 1028.3 in SE 3.7 mph 3.7 mph 83 % 0.0 in
16:56 17.2 °F 14.3 °F 1028.3 in SE 5.6 mph 5.6 mph 83 % 0.0 in
16:58 17.2 °F 14.3 °F 1028.3 in SE 5.6 mph 5.6 mph 83 % 0.0 in
17:00 17.2 °F 14.1 °F 1028.0 in SE 3.7 mph 3.7 mph 82 % 0.0 in
17:05 17.1 °F 13.9 °F 1028.0 in ESE 5.6 mph 5.6 mph 82 % 0.0 in
17:06 16.9 °F 13.8 °F 1028.0 in ESE 3.7 mph 3.7 mph 82 % 0.0 in
17:10 16.7 °F 13.8 °F 1028.0 in ESE 5.6 mph 5.6 mph 83 % 0.0 in
17:12 16.7 °F 13.8 °F 1028.0 in East 5.6 mph 5.6 mph 83 % 0.0 in
17:16 16.4 °F 13.7 °F 1028.0 in East 7.4 mph 7.4 mph 84 % 0.0 in
17:21 16.3 °F 13.8 °F 1028.0 in East 7.4 mph 7.4 mph 85 % 0.0 in
17:24 16.2 °F 13.7 °F 1028.0 in East 7.4 mph 7.4 mph 85 % 0.0 in
17:27 16.2 °F 13.8 °F 1028.0 in East 5.6 mph 5.6 mph 86 % 0.0 in
17:30 16.1 °F 13.8 °F 1028.0 in East 3.7 mph 3.7 mph 86 % 0.0 in
17:32 16.1 °F 13.7 °F 1028.0 in East 1.9 mph   86 % 0.0 in
17:37 16.1 °F 13.9 °F 1028.0 in Calm     87 % 0.0 in
17:38 16.1 °F 13.9 °F 1028.0 in Calm     87 % 0.0 in
17:43 16.0 °F 13.8 °F 1028.0 in East 3.7 mph 3.7 mph 87 % 0.0 in
17:45 16.0 °F 13.8 °F 1028.0 in East 5.6 mph 5.6 mph 87 % 0.0 in
17:48 15.9 °F 13.8 °F 1028.0 in East 5.6 mph 5.6 mph 87 % 0.0 in
17:53 15.8 °F 13.7 °F 1028.3 in ENE 6.4 mph 6.4 mph 87 % 0.0 in
17:58 15.8 °F 13.8 °F 1028.0 in ENE 5.6 mph 5.6 mph 88 % 0.0 in
18:02 15.8 °F 13.8 °F 1028.0 in East 7.4 mph 7.4 mph 88 % 0.0 in
18:05 15.7 °F 13.7 °F 1028.0 in ENE 4.8 mph 8.0 mph 88 % 0.0 in
18:08 15.7 °F 13.7 °F 1028.0 in ENE 5.6 mph 5.6 mph 88 % 0.0 in
18:10 15.7 °F 13.7 °F 1028.3 in ENE 5.6 mph 5.6 mph 88 % 0.0 in
18:14 15.6 °F 13.8 °F 1028.0 in NE 6.4 mph 6.4 mph 89 % 0.0 in
18:15 15.6 °F 13.6 °F 1028.0 in NE 5.6 mph 5.6 mph 88 % 0.0 in
18:20 15.6 °F 13.7 °F 1028.0 in NE 4.8 mph 4.8 mph 89 % 0.0 in
18:22 15.6 °F 13.7 °F 1028.0 in NE 5.6 mph 5.6 mph 89 % 0.0 in
18:24 15.6 °F 13.7 °F 1028.0 in NE 5.6 mph 5.6 mph 89 % 0.0 in
18:29 15.6 °F 13.7 °F 1028.0 in NE 5.6 mph 5.6 mph 89 % 0.0 in
18:34 15.6 °F 13.7 °F 1028.0 in ENE 5.6 mph 5.6 mph 89 % 0.0 in
18:35 15.6 °F 13.7 °F 1028.0 in ENE 5.6 mph 5.6 mph 89 % 0.0 in
18:38 15.6 °F 13.7 °F 1028.0 in East 7.4 mph 7.4 mph 89 % 0.0 in
18:40 15.6 °F 13.7 °F 1028.0 in East 3.7 mph 3.7 mph 89 % 0.0 in
18:46 15.5 °F 13.7 °F 1028.0 in East 5.6 mph 5.6 mph 89 % 0.0 in
18:49 15.4 °F 13.7 °F 1028.0 in ENE 7.4 mph 7.4 mph 89 % 0.0 in
18:53 15.4 °F 13.7 °F 1028.0 in NE 6.4 mph 6.4 mph 89 % 0.0 in
18:54 15.4 °F 13.7 °F 1028.0 in NE 6.4 mph 6.4 mph 89 % 0.0 in
18:59 15.4 °F 13.6 °F 1028.0 in Calm     89 % 0.0 in
19:00 15.4 °F 13.6 °F 1028.0 in Calm     89 % 0.0 in
19:05 15.4 °F 13.6 °F 1028.0 in Calm     89 % 0.0 in
19:06 15.4 °F 13.6 °F 1028.0 in Calm     89 % 0.0 in
19:11 15.4 °F 13.8 °F 1028.0 in Calm     90 % 0.0 in
19:15 15.4 °F 13.8 °F 1028.0 in Calm     90 % 0.0 in
19:19 15.4 °F 13.8 °F 1028.0 in Calm     90 % 0.0 in
19:24 15.4 °F 13.8 °F 1028.0 in Calm     90 % 0.0 in
19:29 15.4 °F 13.8 °F 1028.0 in Calm     90 % 0.0 in
19:30 15.4 °F 13.8 °F 1028.0 in Calm     90 % 0.0 in
19:32 15.4 °F 13.8 °F 1028.0 in Calm     90 % 0.0 in
19:35 15.4 °F 13.8 °F 1028.0 in Calm     90 % 0.0 in
19:39 15.4 °F 13.8 °F 1028.0 in Calm     90 % 0.0 in
19:44 15.3 °F 13.7 °F 1028.0 in Calm     90 % 0.0 in
19:46 15.3 °F 13.7 °F 1028.0 in Calm     90 % 0.0 in
19:47 15.3 °F 13.7 °F 1028.0 in Calm     90 % 0.0 in
19:55 15.1 °F 13.5 °F 1028.0 in Calm     90 % 0.0 in
19:57 15.1 °F 13.4 °F 1028.0 in Calm     90 % 0.0 in
20:02 14.9 °F 13.3 °F 1028.0 in NE 3.7 mph 3.7 mph 90 % 0.0 in
20:03 14.9 °F 13.3 °F 1028.0 in NE 3.7 mph 3.7 mph 90 % 0.0 in
20:08 15.0 °F 13.4 °F 1028.3 in Calm     90 % 0.0 in
20:10 15.0 °F 13.4 °F 1028.0 in Calm     90 % 0.0 in
20:19 15.1 °F 13.4 °F 1028.3 in Calm     90 % 0.0 in
20:24 14.9 °F 13.2 °F 1028.3 in NNE 6.4 mph 6.4 mph 89 % 0.0 in
20:29 14.7 °F 12.9 °F 1028.3 in North 8.0 mph 8.0 mph 89 % 0.0 in
20:30 14.7 °F 12.9 °F 1028.3 in North 8.0 mph 8.0 mph 89 % 0.0 in
20:35 14.3 °F 12.6 °F 1028.3 in North 8.0 mph 8.0 mph 89 % 0.0 in
20:38 14.3 °F 12.5 °F 1028.3 in North 11.1 mph 11.1 mph 89 % 0.0 in
20:41 14.2 °F 12.4 °F 1028.3 in North 9.3 mph 9.3 mph 89 % 0.0 in
20:43 14.1 °F 12.3 °F 1028.3 in North 7.4 mph 7.4 mph 89 % 0.0 in
20:47 14.1 °F 12.3 °F 1028.3 in North 7.4 mph 7.4 mph 89 % 0.0 in
20:49 14.1 °F 12.3 °F 1028.3 in NNW 5.6 mph 5.6 mph 89 % 0.0 in
20:52 14.2 °F 12.4 °F 1028.3 in NNW 3.7 mph 3.7 mph 89 % 0.0 in
20:55 14.3 °F 12.5 °F 1028.3 in NNW 5.6 mph 5.6 mph 89 % 0.0 in
20:58 14.4 °F 12.6 °F 1028.3 in NNW 5.6 mph 5.6 mph 89 % 0.0 in
21:01 14.6 °F 12.8 °F 1028.3 in North 5.6 mph 5.8 mph 89 % 0.0 in
21:06 14.6 °F 12.8 °F 1028.3 in North 5.6 mph 5.6 mph 89 % 0.0 in
21:11 14.8 °F 13.1 °F 1028.3 in Calm     89 % 0.0 in
21:16 15.1 °F 13.1 °F 1028.3 in Calm     88 % 0.0 in
21:21 15.1 °F 12.9 °F 1028.3 in North 5.6 mph 6.1 mph 87 % 0.0 in
21:26 15.3 °F 13.1 °F 1028.3 in NNW 5.6 mph 5.6 mph 87 % 0.0 in
21:31 15.5 °F 13.3 °F 1028.3 in Calm     87 % 0.0 in
21:36 15.7 °F 13.2 °F 1028.3 in Calm     85 % 0.0 in
21:42 15.8 °F 12.9 °F 1028.3 in Calm     83 % 0.0 in
21:47 15.7 °F 12.7 °F 1028.3 in NNW 8.0 mph 8.0 mph 82 % 0.0 in
21:52 15.7 °F 12.4 °F 1028.3 in NNW 7.4 mph 7.4 mph 81 % 0.0 in
21:53 15.7 °F 12.4 °F 1028.3 in NNW 5.6 mph 5.6 mph 81 % 0.0 in
21:57 15.6 °F 12.3 °F 1028.3 in NNW 5.6 mph 5.6 mph 81 % 0.0 in
22:01 15.6 °F 12.1 °F 1028.3 in NNW 6.4 mph 6.4 mph 80 % 0.0 in
22:02 15.5 °F 12.1 °F 1028.3 in NW 6.4 mph 6.4 mph 80 % 0.0 in
22:06 15.4 °F 11.8 °F 1028.3 in NW 5.6 mph 5.6 mph 79 % 0.0 in
22:10 15.3 °F 11.7 °F 1028.3 in NW 5.6 mph 5.6 mph 79 % 0.0 in
22:11 15.2 °F 11.4 °F 1028.3 in NW 5.6 mph 5.6 mph 78 % 0.0 in
22:14 15.2 °F 11.3 °F 1028.3 in NW 5.6 mph 5.6 mph 78 % 0.0 in
22:19 15.2 °F 11.2 °F 1028.3 in NW 5.6 mph 5.6 mph 77 % 0.0 in
22:21 15.2 °F 11.0 °F 1028.3 in NW 5.6 mph 5.6 mph 76 % 0.0 in
22:26 15.3 °F 11.1 °F 1028.3 in NW 3.7 mph 3.7 mph 76 % 0.0 in
22:31 15.2 °F 10.8 °F 1028.3 in Calm     75 % 0.0 in
22:33 15.3 °F 10.9 °F 1028.3 in NW 5.6 mph 5.6 mph 75 % 0.0 in
22:36 15.2 °F 10.8 °F 1028.3 in NW 3.7 mph 3.7 mph 75 % 0.0 in
22:41 15.1 °F 10.4 °F 1028.3 in NW 7.4 mph 7.4 mph 74 % 0.0 in
22:42 15.1 °F 10.4 °F 1028.3 in NW 7.4 mph 7.4 mph 74 % 0.0 in
22:47 15.3 °F 10.3 °F 1028.3 in NNW 8.0 mph 8.0 mph 72 % 0.0 in
22:54 15.4 °F 9.9 °F 1028.3 in North 6.4 mph 6.4 mph 70 % 0.0 in
22:59 15.4 °F 10.0 °F 1028.3 in North 8.0 mph 8.0 mph 70 % 0.0 in
23:01 15.5 °F 9.8 °F 1028.3 in North 11.1 mph 11.1 mph 69 % 0.0 in
23:06 15.4 °F 9.8 °F 1028.3 in North 11.1 mph 11.1 mph 69 % 0.0 in
23:08 15.4 °F 9.8 °F 1028.3 in North 9.3 mph 9.3 mph 69 % 0.0 in
23:13 15.4 °F 9.8 °F 1028.3 in North 9.3 mph 9.3 mph 69 % 0.0 in
23:18 15.5 °F 9.8 °F 1028.3 in North 11.1 mph 11.1 mph 69 % 0.0 in
23:20 15.6 °F 9.9 °F 1028.3 in North 11.1 mph 11.1 mph 69 % 0.0 in
23:23 15.7 °F 10.1 °F 1028.3 in North 11.1 mph 11.1 mph 69 % 0.0 in
23:29 15.8 °F 9.9 °F 1028.3 in North 11.3 mph 11.3 mph 68 % 0.0 in
23:32 15.9 °F 10.1 °F 1028.3 in North 11.3 mph 11.3 mph 68 % 0.0 in
23:36 16.0 °F 9.9 °F 1028.7 in North 9.3 mph 9.3 mph 67 % 0.0 in
23:37 16.0 °F 9.9 °F 1028.3 in NNW 8.0 mph 8.0 mph 67 % 0.0 in
23:42 16.1 °F 9.9 °F 1028.3 in North 13.0 mph 13.0 mph 67 % 0.0 in
23:46 16.1 °F 9.9 °F 1028.3 in NNW 9.7 mph 9.7 mph 67 % 0.0 in
23:48 16.0 °F 9.9 °F 1028.3 in NNW 7.4 mph 7.4 mph 67 % 0.0 in
23:53 16.1 °F 9.9 °F 1028.3 in NNW 5.6 mph 5.6 mph 67 % 0.0 in
23:57 16.0 °F 9.9 °F 1028.7 in North 5.6 mph 5.6 mph 67 % 0.0 in
23:58 15.9 °F 9.8 °F 1028.7 in North 3.7 mph 3.7 mph 67 % 0.0 in
Puerto Banus, Marbella
Elogios de Weather Underground - 2.75 mb

Guión original por  Jim McMurry - jmcmurry@mwt.net Adaptado para la plantilla por  Wim van der Kuil - Leuven-Template.eu

Usted encontrará nuestra información del tiempo también en:

Weather Underground

Iberian Peninsula Weather Network